Terminal Aerodrome Forecast
Issued by NWS Wilmington, OH

Current Version | Previous Version | Graphics & Text | Print | Product List | Glossary On
Versions: 1 2 3 4 5 6 7 8 9 10 11 12 13 14 15 16
000
FTUS41 KILN 272335
TAFCMH
TAF
KCMH 272335Z 2800/2824 13004KT P6SM VCSH OVC090
     FM280300 13005KT 6SM -SHRA OVC050
     FM280700 14005KT 3SM -SHRA BR OVC015
     FM281100 VRB03KT 5SM BR VCSH OVC008
     FM281400 35008KT P6SM OVC008
     FM282100 36010KT P6SM OVC015=

USA.gov is the U.S. government's official web portal to all federal, state and local government web resources and services.